createdAt,value
2024-03-16T00:00:19.832Z,100.67
2024-03-16T00:00:51.982Z,102.00
2024-03-16T00:01:24.472Z,102.33
2024-03-16T00:01:56.686Z,103.00
2024-03-16T00:02:28.735Z,103.00
2024-03-16T00:03:01.218Z,102.00
2024-03-16T00:03:33.470Z,102.00
2024-03-16T00:04:05.563Z,100.00
2024-03-16T00:04:37.645Z,97.33
2024-03-16T00:05:09.617Z,96.00
2024-03-16T00:05:41.694Z,96.67
2024-03-16T00:06:13.631Z,96.67
2024-03-16T00:06:45.713Z,94.33
2024-03-16T00:07:17.740Z,91.33
2024-03-16T00:07:50.697Z,91.33
2024-03-16T00:08:22.685Z,92.33
2024-03-16T00:08:54.655Z,93.00
2024-03-16T00:09:26.654Z,94.00
2024-03-16T00:09:58.632Z,94.00
2024-03-16T00:10:30.849Z,94.00
2024-03-16T00:11:02.936Z,92.33
2024-03-16T00:11:35.124Z,90.00
2024-03-16T00:12:07.512Z,84.67
2024-03-16T00:12:39.428Z,77.33
2024-03-16T00:13:11.461Z,72.00
2024-03-16T00:13:43.595Z,71.33
2024-03-16T00:14:15.568Z,77.00
2024-03-16T00:14:49.546Z,80.33
2024-03-16T00:15:21.610Z,83.33
2024-03-16T00:15:53.683Z,89.33
2024-03-16T00:16:25.618Z,94.67
2024-03-16T00:16:57.515Z,95.67
2024-03-16T00:17:29.735Z,94.00
2024-03-16T00:18:01.793Z,86.00
2024-03-16T00:18:37.743Z,73.67
2024-03-16T00:19:09.985Z,64.00
2024-03-16T00:19:41.973Z,60.00
2024-03-16T00:20:15.153Z,57.67
2024-03-16T00:20:47.087Z,58.00
2024-03-16T00:21:19.006Z,55.00
2024-03-16T00:21:52.064Z,51.00
2024-03-16T00:22:24.144Z,48.67
2024-03-16T00:22:56.043Z,54.67
2024-03-16T00:23:29.988Z,62.00
2024-03-16T00:24:01.969Z,63.00
2024-03-16T00:24:33.948Z,64.00
2024-03-16T00:25:10.256Z,63.67
2024-03-16T00:25:42.220Z,61.67
2024-03-16T00:26:14.188Z,59.00
2024-03-16T00:26:46.311Z,57.00
2024-03-16T00:27:19.346Z,58.33
2024-03-16T00:27:54.086Z,59.00
2024-03-16T00:28:26.134Z,59.00
2024-03-16T00:28:58.028Z,59.00
2024-03-16T00:29:30.067Z,58.00
2024-03-16T00:30:02.267Z,56.67
2024-03-16T00:30:34.698Z,57.00
2024-03-16T00:31:07.626Z,57.00
2024-03-16T00:31:39.849Z,58.00
2024-03-16T00:32:11.793Z,58.67
2024-03-16T00:32:43.727Z,59.33
2024-03-16T00:33:16.068Z,60.67
2024-03-16T00:33:48.057Z,63.67
2024-03-16T00:34:20.483Z,83.67
2024-03-16T00:34:52.601Z,95.67
2024-03-16T00:35:25.930Z,90.33
2024-03-16T00:35:57.968Z,86.00
2024-03-16T00:36:31.716Z,84.00
2024-03-16T00:37:05.939Z,82.67
2024-03-16T00:37:38.268Z,82.00
2024-03-16T00:38:11.222Z,81.67
2024-03-16T00:38:43.456Z,92.00
2024-03-16T00:39:19.623Z,102.67
2024-03-16T00:39:51.887Z,103.00
2024-03-16T00:40:24.049Z,97.00
2024-03-16T00:40:56.418Z,94.67
2024-03-16T00:41:28.673Z,92.67
2024-03-16T00:42:00.671Z,91.00
2024-03-16T00:42:32.787Z,90.33
2024-03-16T00:43:05.729Z,90.00
2024-03-16T00:43:38.219Z,91.33
2024-03-16T00:44:10.376Z,93.00
2024-03-16T00:44:42.399Z,95.67
2024-03-16T00:45:14.512Z,112.00
2024-03-16T00:45:46.685Z,121.00
2024-03-16T00:46:18.668Z,114.00
2024-03-16T00:46:50.536Z,106.67
2024-03-16T00:47:22.713Z,104.67
2024-03-16T00:47:57.472Z,103.67
2024-03-16T00:48:29.921Z,103.00
2024-03-16T00:49:01.860Z,103.00
2024-03-16T00:49:33.943Z,103.00
2024-03-16T00:50:06.366Z,107.67
2024-03-16T00:50:38.303Z,118.67
2024-03-16T00:51:11.907Z,124.33
2024-03-16T00:51:44.136Z,119.33
2024-03-16T00:52:16.174Z,114.00
2024-03-16T00:52:48.365Z,112.33
2024-03-16T00:53:20.305Z,110.67
2024-03-16T00:53:52.289Z,108.67
2024-03-16T00:54:25.107Z,105.33
2024-03-16T00:54:57.970Z,103.67
2024-03-16T00:55:31.168Z,102.67
2024-03-16T00:56:04.516Z,101.67
2024-03-16T00:56:36.605Z,101.00
2024-03-16T00:57:08.518Z,101.00
2024-03-16T00:57:40.751Z,100.33
2024-03-16T00:58:12.869Z,100.00
2024-03-16T00:58:44.932Z,98.67
2024-03-16T00:59:17.220Z,95.00
2024-03-16T00:59:49.312Z,92.33
2024-03-16T01:00:21.733Z,91.00
2024-03-16T01:00:53.895Z,91.00
2024-03-16T01:01:29.334Z,93.00
2024-03-16T01:02:01.624Z,102.33
2024-03-16T01:02:33.588Z,122.33
2024-03-16T01:03:05.635Z,130.67
2024-03-16T01:03:37.790Z,127.33
2024-03-16T01:04:10.073Z,125.33
2024-03-16T01:04:42.038Z,135.00
2024-03-16T01:05:14.951Z,151.67
2024-03-16T01:05:52.412Z,157.67
2024-03-16T01:06:24.384Z,156.33
2024-03-16T01:06:56.477Z,155.33
2024-03-16T01:07:28.442Z,158.67
2024-03-16T01:08:00.508Z,162.67
2024-03-16T01:08:32.570Z,161.67
2024-03-16T01:09:05.086Z,155.00
2024-03-16T01:09:37.079Z,147.33
2024-03-16T01:10:12.672Z,142.00
2024-03-16T01:10:45.218Z,140.33
2024-03-16T01:11:17.433Z,138.67
2024-03-16T01:11:49.450Z,137.67
2024-03-16T01:12:21.398Z,137.33
2024-03-16T01:12:53.394Z,141.33
2024-03-16T01:13:25.448Z,148.67
2024-03-16T01:13:57.625Z,150.00
2024-03-16T01:14:30.171Z,148.67
2024-03-16T01:15:02.094Z,149.33
2024-03-16T01:15:34.208Z,154.00
2024-03-16T01:16:06.258Z,158.67
2024-03-16T01:16:38.468Z,161.67
2024-03-16T01:17:10.485Z,162.00
2024-03-16T01:17:43.523Z,162.00
2024-03-16T01:18:15.765Z,159.00
2024-03-16T01:18:47.820Z,157.00
2024-03-16T01:19:19.853Z,159.00
2024-03-16T01:19:52.086Z,161.67
2024-03-16T01:20:25.521Z,172.33
2024-03-16T01:20:57.516Z,182.00
2024-03-16T01:21:29.565Z,188.00
2024-03-16T01:22:02.693Z,186.67
2024-03-16T01:22:34.728Z,176.67
2024-03-16T01:23:07.803Z,170.00
2024-03-16T01:23:40.324Z,168.00
2024-03-16T01:24:12.342Z,166.33
2024-03-16T01:24:44.310Z,170.67
2024-03-16T01:25:16.471Z,186.33
2024-03-16T01:25:48.556Z,200.67
2024-03-16T01:26:20.485Z,215.33
2024-03-16T01:26:52.488Z,224.00
2024-03-16T01:27:24.412Z,222.00
2024-03-16T01:27:57.961Z,220.00
2024-03-16T01:28:29.922Z,213.00
2024-03-16T01:29:04.956Z,198.67
2024-03-16T01:29:36.911Z,192.33
2024-03-16T01:30:09.525Z,191.33
2024-03-16T01:30:41.630Z,190.67
2024-03-16T01:31:15.091Z,193.67
2024-03-16T01:31:47.329Z,207.67
2024-03-16T01:32:19.510Z,221.33
2024-03-16T01:32:51.829Z,230.67
2024-03-16T01:33:24.200Z,234.00
2024-03-16T01:33:56.589Z,235.33
2024-03-16T01:34:28.753Z,235.00
2024-03-16T01:35:00.775Z,232.33
2024-03-16T01:35:32.721Z,226.33
2024-03-16T01:36:05.008Z,217.67
2024-03-16T01:36:37.026Z,210.33
2024-03-16T01:37:09.143Z,180.33
2024-03-16T01:37:41.273Z,150.00
2024-03-16T01:38:13.642Z,135.33
2024-03-16T01:38:45.691Z,128.00
2024-03-16T01:39:17.705Z,132.00
2024-03-16T01:39:51.263Z,139.00
2024-03-16T01:40:26.718Z,142.33
2024-03-16T01:40:58.769Z,154.67
2024-03-16T01:41:30.742Z,159.67
2024-03-16T01:42:04.620Z,161.67
2024-03-16T01:42:37.580Z,163.33
2024-03-16T01:43:14.264Z,164.00
2024-03-16T01:43:49.651Z,162.67
2024-03-16T01:44:21.621Z,151.33
2024-03-16T01:45:11.573Z,136.33
2024-03-16T01:45:44.572Z,123.00
2024-03-16T01:46:17.334Z,121.00
2024-03-16T01:46:49.506Z,116.33
2024-03-16T01:47:21.473Z,109.67
2024-03-16T01:47:54.860Z,100.67
2024-03-16T01:48:27.013Z,97.00
2024-03-16T01:48:58.954Z,92.67
2024-03-16T01:49:30.932Z,94.67
2024-03-16T01:50:02.926Z,94.00
2024-03-16T01:50:34.890Z,92.00
2024-03-16T01:51:08.530Z,96.33
2024-03-16T01:51:41.116Z,104.67
2024-03-16T01:52:14.340Z,113.33
2024-03-16T01:52:48.029Z,117.67
2024-03-16T01:53:19.953Z,126.00
2024-03-16T01:53:51.928Z,147.67
2024-03-16T01:54:24.734Z,166.67
2024-03-16T01:54:56.962Z,174.67
2024-03-16T01:55:29.190Z,178.00
2024-03-16T01:56:01.164Z,180.33
2024-03-16T01:56:33.744Z,178.33
2024-03-16T01:57:05.804Z,176.00
2024-03-16T01:57:41.124Z,174.67
2024-03-16T01:58:13.126Z,174.00
2024-03-16T01:58:46.764Z,172.33
2024-03-16T01:59:19.344Z,169.00
2024-03-16T01:59:51.356Z,166.67
2024-03-16T02:00:23.299Z,166.33
2024-03-16T02:00:55.466Z,166.00
2024-03-16T02:01:27.603Z,165.00
2024-03-16T02:02:03.381Z,164.00
2024-03-16T02:02:38.198Z,164.33
2024-03-16T02:03:10.418Z,165.67
2024-03-16T02:03:43.571Z,165.00
2024-03-16T02:04:15.663Z,160.67
2024-03-16T02:04:47.773Z,147.00
2024-03-16T02:05:21.012Z,131.67
2024-03-16T02:05:52.953Z,120.00
2024-03-16T02:06:29.902Z,113.00
2024-03-16T02:07:10.141Z,110.00
2024-03-16T02:07:45.835Z,103.67
2024-03-16T02:08:17.773Z,100.00
2024-03-16T02:08:49.878Z,96.00
2024-03-16T02:09:22.450Z,93.00
2024-03-16T02:09:54.442Z,91.33
2024-03-16T02:10:26.366Z,92.00
2024-03-16T02:10:58.728Z,91.00
2024-03-16T02:11:30.724Z,91.00
2024-03-16T02:12:02.700Z,93.00
2024-03-16T02:12:35.693Z,94.67
2024-03-16T02:13:07.974Z,93.33
2024-03-16T02:13:40.186Z,95.33
2024-03-16T02:14:12.218Z,98.00
2024-03-16T02:14:44.312Z,101.00
2024-03-16T02:15:16.431Z,103.67
2024-03-16T02:15:48.688Z,107.67
2024-03-16T02:16:20.667Z,126.33
2024-03-16T02:16:56.240Z,155.33
2024-03-16T02:17:28.824Z,176.00
2024-03-16T02:18:01.012Z,182.00
2024-03-16T02:18:33.094Z,179.00
2024-03-16T02:19:05.274Z,179.00
2024-03-16T02:19:37.218Z,180.00
2024-03-16T02:20:16.837Z,180.67
2024-03-16T02:20:49.170Z,182.00
2024-03-16T02:21:21.228Z,180.00
2024-03-16T02:21:53.330Z,179.00
2024-03-16T02:22:25.373Z,180.00
2024-03-16T02:22:57.366Z,182.67
2024-03-16T02:23:32.731Z,185.67
2024-03-16T02:24:05.012Z,186.67
2024-03-16T02:24:37.646Z,184.33
2024-03-16T02:25:14.229Z,184.67
2024-03-16T02:25:46.336Z,185.00
2024-03-16T02:26:18.294Z,184.67
2024-03-16T02:26:51.068Z,183.33
2024-03-16T02:27:23.366Z,181.67
2024-03-16T02:27:55.410Z,179.67
2024-03-16T02:28:27.447Z,178.33
2024-03-16T02:28:59.482Z,176.67
2024-03-16T02:29:36.635Z,175.33
2024-03-16T02:30:12.139Z,174.67
2024-03-16T02:30:44.857Z,174.00
2024-03-16T02:31:17.055Z,174.00
2024-03-16T02:31:50.882Z,174.00
2024-03-16T02:32:23.959Z,175.33
2024-03-16T02:32:55.991Z,176.00
2024-03-16T02:33:29.093Z,176.00
2024-03-16T02:34:01.315Z,175.33
2024-03-16T02:34:34.706Z,174.00
2024-03-16T02:35:09.420Z,171.00
2024-03-16T02:35:41.455Z,168.00
2024-03-16T02:36:14.538Z,165.33
2024-03-16T02:36:46.573Z,162.67
2024-03-16T02:37:20.333Z,157.00
2024-03-16T02:37:52.234Z,151.33
2024-03-16T02:38:24.283Z,147.67
2024-03-16T02:38:56.229Z,147.67
2024-03-16T02:39:28.179Z,146.00
2024-03-16T02:40:00.218Z,141.00
2024-03-16T02:40:33.112Z,133.00
2024-03-16T02:41:08.650Z,127.33
2024-03-16T02:41:40.956Z,122.00
2024-03-16T02:42:12.865Z,121.00
2024-03-16T02:42:45.519Z,121.67
2024-03-16T02:43:17.746Z,121.67
2024-03-16T02:43:49.707Z,126.00
2024-03-16T02:44:21.603Z,131.67
2024-03-16T02:44:53.767Z,133.67
2024-03-16T02:45:25.803Z,135.00
2024-03-16T02:45:59.797Z,134.67
2024-03-16T02:46:32.037Z,130.00
2024-03-16T02:47:05.745Z,118.33
2024-03-16T02:47:37.849Z,109.00
2024-03-16T02:48:11.160Z,107.00
2024-03-16T02:48:43.896Z,107.33
2024-03-16T02:49:16.724Z,109.33
2024-03-16T02:49:50.690Z,113.33
2024-03-16T02:50:22.930Z,119.00
2024-03-16T02:50:54.912Z,129.67
2024-03-16T02:51:26.899Z,152.67
2024-03-16T02:51:59.087Z,166.00
2024-03-16T02:52:34.659Z,172.33
2024-03-16T02:53:06.763Z,181.33
2024-03-16T02:53:38.999Z,186.00
2024-03-16T02:54:11.008Z,187.67
2024-03-16T02:54:43.190Z,188.00
2024-03-16T02:55:15.200Z,186.67
2024-03-16T02:55:47.169Z,186.67
2024-03-16T02:56:20.283Z,186.67
2024-03-16T02:56:52.911Z,184.33
2024-03-16T02:57:25.598Z,183.67
2024-03-16T02:57:57.570Z,185.00
2024-03-16T02:58:30.310Z,182.67
2024-03-16T02:59:02.847Z,180.67
2024-03-16T02:59:34.835Z,178.00
2024-03-16T03:00:13.616Z,176.67
2024-03-16T03:00:45.622Z,175.33
2024-03-16T03:01:18.132Z,172.67
2024-03-16T03:01:50.259Z,164.67
2024-03-16T03:02:25.592Z,155.67
2024-03-16T03:02:58.617Z,151.33
2024-03-16T03:03:30.693Z,151.33
2024-03-16T03:04:03.191Z,152.67
2024-03-16T03:04:35.602Z,158.00
2024-03-16T03:05:12.451Z,170.33
2024-03-16T03:05:44.744Z,179.00
2024-03-16T03:06:16.771Z,184.67
2024-03-16T03:06:48.774Z,188.00
2024-03-16T03:07:20.957Z,191.67
2024-03-16T03:07:54.025Z,194.67
2024-03-16T03:08:26.348Z,195.67
2024-03-16T03:08:58.259Z,194.67
2024-03-16T03:09:30.704Z,191.00
2024-03-16T03:10:02.970Z,188.00
2024-03-16T03:10:35.085Z,186.00
2024-03-16T03:11:07.075Z,184.00
2024-03-16T03:11:39.669Z,181.00
2024-03-16T03:12:11.643Z,178.00
2024-03-16T03:12:43.805Z,176.33
2024-03-16T03:13:15.814Z,176.00
2024-03-16T03:13:51.829Z,175.67
2024-03-16T03:14:23.730Z,174.00
2024-03-16T03:14:55.660Z,165.67
2024-03-16T03:15:28.427Z,152.67
2024-03-16T03:16:00.486Z,150.33
2024-03-16T03:16:32.464Z,151.67
2024-03-16T03:17:04.453Z,148.67
2024-03-16T03:17:36.472Z,146.33
2024-03-16T03:18:08.541Z,142.67
2024-03-16T03:18:40.676Z,131.33
2024-03-16T03:19:12.747Z,120.33
2024-03-16T03:19:46.270Z,112.67
2024-03-16T03:20:22.129Z,106.00
2024-03-16T03:20:55.120Z,100.67
2024-03-16T03:21:27.233Z,96.67
2024-03-16T03:21:59.191Z,92.33
2024-03-16T03:22:31.122Z,88.00
2024-03-16T03:23:06.634Z,86.33
2024-03-16T03:23:38.681Z,83.67
2024-03-16T03:24:10.564Z,80.67
2024-03-16T03:24:42.481Z,79.33
2024-03-16T03:25:14.792Z,78.33
2024-03-16T03:25:49.301Z,79.00
2024-03-16T03:26:21.740Z,80.00
2024-03-16T03:26:53.673Z,80.33
2024-03-16T03:27:26.257Z,83.33
2024-03-16T03:27:58.546Z,91.00
2024-03-16T03:28:30.513Z,96.00
2024-03-16T03:29:02.549Z,99.00
2024-03-16T03:29:34.471Z,104.00
2024-03-16T03:30:07.447Z,121.67
2024-03-16T03:30:39.597Z,136.67
2024-03-16T03:31:12.334Z,137.67
2024-03-16T03:31:44.387Z,138.33
2024-03-16T03:32:16.279Z,142.00
2024-03-16T03:32:48.278Z,145.33
2024-03-16T03:33:20.254Z,150.67
2024-03-16T03:33:52.281Z,151.67
2024-03-16T03:34:25.267Z,145.33
2024-03-16T03:34:57.241Z,141.67
2024-03-16T03:35:29.900Z,140.33
2024-03-16T03:36:04.065Z,139.67
2024-03-16T03:36:36.206Z,138.67
2024-03-16T03:37:09.248Z,138.00
2024-03-16T03:37:41.195Z,137.00
2024-03-16T03:38:13.189Z,136.33
2024-03-16T03:38:45.290Z,136.00
2024-03-16T03:39:17.965Z,136.00
2024-03-16T03:39:53.796Z,135.67
2024-03-16T03:40:26.597Z,135.00
2024-03-16T03:40:59.025Z,134.00
2024-03-16T03:41:30.914Z,133.67
2024-03-16T03:42:02.810Z,133.00
2024-03-16T03:42:36.298Z,133.00
2024-03-16T03:43:18.294Z,133.67
2024-03-16T03:43:59.005Z,135.67
2024-03-16T03:44:51.282Z,136.00
2024-03-16T03:45:28.995Z,138.00
2024-03-16T03:46:01.041Z,141.00
2024-03-16T03:46:52.088Z,142.00
2024-03-16T03:47:31.719Z,144.67
2024-03-16T03:48:05.563Z,146.33
2024-03-16T03:48:37.826Z,144.67
2024-03-16T03:49:13.173Z,144.00
2024-03-16T03:49:52.177Z,143.67
2024-03-16T03:50:30.557Z,142.67
2024-03-16T03:51:04.171Z,139.33
2024-03-16T03:51:36.234Z,130.00
2024-03-16T03:52:08.296Z,121.67
2024-03-16T03:52:40.251Z,117.00
2024-03-16T03:53:12.385Z,114.33
2024-03-16T03:53:44.714Z,109.67
2024-03-16T03:54:16.632Z,102.67
2024-03-16T03:54:48.704Z,98.33
2024-03-16T03:55:20.780Z,96.67
2024-03-16T03:55:53.526Z,97.00
2024-03-16T03:56:25.456Z,98.67
2024-03-16T03:56:57.458Z,99.00
2024-03-16T03:57:29.576Z,96.33
2024-03-16T03:58:03.583Z,95.00
2024-03-16T03:58:35.750Z,94.33
2024-03-16T03:59:07.855Z,98.00
2024-03-16T03:59:39.865Z,101.00
2024-03-16T04:00:12.407Z,102.67
2024-03-16T04:00:45.948Z,104.33
2024-03-16T04:01:18.987Z,105.67
2024-03-16T04:01:51.085Z,107.33
2024-03-16T04:02:23.054Z,111.00
2024-03-16T04:02:55.152Z,119.00
2024-03-16T04:03:27.141Z,126.33
2024-03-16T04:04:00.186Z,132.33
2024-03-16T04:04:32.627Z,138.33
2024-03-16T04:05:04.888Z,141.00
2024-03-16T04:05:37.863Z,142.00
2024-03-16T04:06:09.840Z,143.00
2024-03-16T04:06:45.933Z,145.33
2024-03-16T04:07:18.169Z,152.33
2024-03-16T04:07:50.161Z,157.00
2024-03-16T04:08:22.164Z,156.33
2024-03-16T04:08:54.048Z,153.67
2024-03-16T04:09:26.034Z,152.33
2024-03-16T04:09:58.057Z,151.33
2024-03-16T04:10:29.982Z,151.00
2024-03-16T04:11:07.105Z,150.00
2024-03-16T04:11:40.991Z,148.33
2024-03-16T04:12:13.993Z,147.00
2024-03-16T04:12:46.966Z,146.00
2024-03-16T04:13:19.077Z,145.00
2024-03-16T04:13:51.024Z,143.67
2024-03-16T04:14:23.557Z,141.00
2024-03-16T04:14:55.498Z,138.00
2024-03-16T04:15:27.927Z,136.33
2024-03-16T04:15:59.939Z,136.00
2024-03-16T04:16:31.995Z,137.00
2024-03-16T04:17:04.145Z,137.00
2024-03-16T04:17:36.109Z,137.00
2024-03-16T04:18:08.328Z,136.33
2024-03-16T04:18:40.471Z,133.67
2024-03-16T04:19:12.605Z,125.00
2024-03-16T04:19:45.804Z,115.33
2024-03-16T04:20:21.446Z,111.33
2024-03-16T04:20:53.327Z,111.00
2024-03-16T04:21:25.472Z,112.00
2024-03-16T04:21:57.442Z,115.00
2024-03-16T04:22:29.452Z,116.67
2024-03-16T04:23:02.797Z,117.67
2024-03-16T04:23:35.183Z,118.33
2024-03-16T04:24:07.594Z,119.00
2024-03-16T04:24:39.545Z,118.00
2024-03-16T04:25:15.518Z,116.00
2024-03-16T04:25:50.235Z,116.00
2024-03-16T04:26:22.310Z,122.33
2024-03-16T04:26:54.260Z,130.67
2024-03-16T04:27:26.257Z,134.33
2024-03-16T04:27:58.289Z,142.67
2024-03-16T04:28:30.519Z,151.00
2024-03-16T04:29:02.477Z,157.33
2024-03-16T04:29:34.384Z,167.67
2024-03-16T04:30:10.580Z,183.00
2024-03-16T04:30:42.542Z,195.33
2024-03-16T04:31:14.584Z,201.00
2024-03-16T04:31:47.156Z,210.67
2024-03-16T04:32:19.347Z,221.67
2024-03-16T04:32:51.466Z,231.33
2024-03-16T04:33:23.571Z,235.33
2024-03-16T04:33:55.540Z,238.00
2024-03-16T04:34:28.048Z,234.00
2024-03-16T04:35:00.502Z,229.33
2024-03-16T04:35:32.391Z,220.67
2024-03-16T04:36:04.431Z,205.33
2024-03-16T04:36:36.740Z,196.33
2024-03-16T04:37:10.018Z,193.67
2024-03-16T04:37:41.961Z,192.00
2024-03-16T04:38:14.373Z,190.00
2024-03-16T04:38:46.320Z,187.00
2024-03-16T04:39:18.411Z,184.33
2024-03-16T04:39:50.341Z,184.00
2024-03-16T04:40:22.451Z,185.67
2024-03-16T04:40:55.492Z,186.67
2024-03-16T04:41:28.861Z,185.00
2024-03-16T04:42:01.894Z,176.67
2024-03-16T04:42:33.968Z,159.00
2024-03-16T04:43:06.140Z,155.33
2024-03-16T04:43:38.185Z,161.67
2024-03-16T04:44:10.116Z,182.33
2024-03-16T04:44:42.166Z,216.00
2024-03-16T04:45:14.146Z,227.67
2024-03-16T04:45:51.707Z,234.67
2024-03-16T04:46:24.654Z,242.67
2024-03-16T04:46:56.746Z,244.00
2024-03-16T04:47:28.935Z,246.33
2024-03-16T04:48:00.975Z,253.00
2024-03-16T04:48:32.954Z,255.67
2024-03-16T04:49:05.916Z,257.00
2024-03-16T04:49:37.924Z,257.00
2024-03-16T04:50:12.732Z,257.67
2024-03-16T04:50:45.546Z,254.33
2024-03-16T04:51:18.333Z,247.33
2024-03-16T04:51:50.287Z,248.33
2024-03-16T04:52:22.410Z,248.67
2024-03-16T04:52:54.335Z,250.33
2024-03-16T04:53:26.225Z,249.33
2024-03-16T04:53:58.398Z,250.33
2024-03-16T04:54:30.650Z,250.67
2024-03-16T04:55:04.572Z,247.00
2024-03-16T04:55:36.683Z,244.33
2024-03-16T04:56:08.631Z,242.33
2024-03-16T04:56:40.546Z,241.33
2024-03-16T04:57:13.854Z,240.67
2024-03-16T04:57:45.911Z,240.00
2024-03-16T04:58:18.081Z,239.33
2024-03-16T04:58:50.184Z,238.33
2024-03-16T04:59:22.064Z,237.67
2024-03-16T04:59:54.034Z,236.67
2024-03-16T05:00:26.116Z,235.00
2024-03-16T05:00:59.963Z,233.00
2024-03-16T05:01:32.118Z,228.00
2024-03-16T05:02:04.290Z,221.67
2024-03-16T05:02:36.298Z,214.00
2024-03-16T05:03:08.192Z,207.33
2024-03-16T05:03:40.264Z,203.33
2024-03-16T05:04:12.374Z,201.00
2024-03-16T05:04:44.426Z,202.00
2024-03-16T05:05:16.397Z,205.00
2024-03-16T05:05:51.717Z,207.67
2024-03-16T05:06:23.855Z,209.33
2024-03-16T05:06:55.889Z,210.33
2024-03-16T05:07:27.849Z,211.67
2024-03-16T05:07:59.933Z,212.67
2024-03-16T05:08:32.054Z,213.67
2024-03-16T05:09:06.794Z,214.00
2024-03-16T05:09:38.720Z,214.67
2024-03-16T05:10:12.827Z,215.00
2024-03-16T05:10:51.171Z,215.00
2024-03-16T05:11:23.260Z,212.67
2024-03-16T05:11:56.118Z,200.00
2024-03-16T05:12:28.227Z,191.33
2024-03-16T05:13:00.206Z,191.00
2024-03-16T05:13:34.687Z,189.67
2024-03-16T05:14:07.551Z,188.33
2024-03-16T05:14:39.471Z,192.00
2024-03-16T05:15:11.437Z,196.00
2024-03-16T05:15:43.410Z,197.67
2024-03-16T05:16:15.436Z,198.00
2024-03-16T05:16:47.407Z,196.67
2024-03-16T05:17:19.443Z,192.00
2024-03-16T05:17:51.509Z,191.00
2024-03-16T05:18:23.457Z,189.67
2024-03-16T05:18:55.402Z,183.33
2024-03-16T05:19:27.380Z,183.00
2024-03-16T05:19:59.580Z,187.00
2024-03-16T05:20:31.529Z,189.33
2024-03-16T05:21:03.787Z,190.00
2024-03-16T05:21:36.344Z,188.67
2024-03-16T05:22:09.142Z,184.67
2024-03-16T05:22:41.175Z,176.33
2024-03-16T05:23:13.549Z,173.67
2024-03-16T05:23:46.847Z,172.33
2024-03-16T05:24:18.862Z,166.00
2024-03-16T05:24:50.822Z,159.33
2024-03-16T05:25:23.857Z,154.67
2024-03-16T05:25:55.854Z,147.67
2024-03-16T05:26:30.198Z,140.33
2024-03-16T05:27:02.179Z,135.00
2024-03-16T05:27:36.632Z,137.00
2024-03-16T05:28:08.746Z,139.33
2024-03-16T05:28:41.015Z,140.33
2024-03-16T05:29:12.948Z,142.67
2024-03-16T05:29:44.909Z,142.67
2024-03-16T05:30:16.853Z,138.33
2024-03-16T05:30:53.810Z,137.67
2024-03-16T05:31:25.939Z,137.00
2024-03-16T05:32:00.412Z,134.33
2024-03-16T05:32:32.475Z,132.67
2024-03-16T05:33:08.262Z,130.67
2024-03-16T05:33:40.526Z,133.33
2024-03-16T05:34:12.557Z,137.00
2024-03-16T05:34:44.584Z,139.00
2024-03-16T05:35:17.384Z,139.33
2024-03-16T05:35:49.359Z,139.00
2024-03-16T05:36:21.386Z,140.67
2024-03-16T05:36:53.449Z,141.00
2024-03-16T05:37:27.214Z,141.00
2024-03-16T05:37:59.902Z,141.00
2024-03-16T05:38:31.821Z,141.00
2024-03-16T05:39:04.011Z,140.33
2024-03-16T05:39:36.512Z,140.33
2024-03-16T05:40:12.445Z,141.00
2024-03-16T05:40:47.260Z,142.33
2024-03-16T05:41:19.279Z,143.00
2024-03-16T05:41:51.619Z,143.00
2024-03-16T05:42:23.576Z,142.00
2024-03-16T05:42:56.116Z,140.00
2024-03-16T05:43:28.160Z,137.67
2024-03-16T05:44:00.233Z,136.33
2024-03-16T05:44:32.421Z,135.33
2024-03-16T05:45:04.797Z,134.33
2024-03-16T05:45:37.579Z,125.33
2024-03-16T05:46:09.664Z,119.67
2024-03-16T05:46:42.185Z,123.00
2024-03-16T05:47:14.206Z,125.00
2024-03-16T05:47:46.198Z,126.67
2024-03-16T05:48:19.253Z,128.00
2024-03-16T05:48:51.512Z,128.00
2024-03-16T05:49:26.050Z,125.67
2024-03-16T05:49:58.780Z,122.00
2024-03-16T05:50:30.660Z,123.67
2024-03-16T05:51:03.738Z,125.33
2024-03-16T05:51:36.030Z,131.00
2024-03-16T05:52:08.190Z,145.00
2024-03-16T05:52:40.227Z,161.00
2024-03-16T05:53:15.605Z,171.00
2024-03-16T05:53:48.208Z,178.00
2024-03-16T05:54:20.127Z,184.00
2024-03-16T05:54:52.571Z,186.00
2024-03-16T05:55:24.721Z,194.67
2024-03-16T05:55:56.708Z,192.67
2024-03-16T05:56:28.665Z,186.67
2024-03-16T05:57:00.734Z,182.67
2024-03-16T05:57:32.852Z,186.33
2024-03-16T05:58:04.910Z,188.00
2024-03-16T05:58:37.017Z,187.67
2024-03-16T05:59:10.210Z,189.00
2024-03-16T05:59:42.325Z,189.67
2024-03-16T06:00:16.984Z,189.33
2024-03-16T06:00:49.957Z,187.33
2024-03-16T06:01:22.873Z,185.67
2024-03-16T06:01:55.170Z,184.00
2024-03-16T06:02:27.104Z,181.00
2024-03-16T06:02:59.119Z,174.67
2024-03-16T06:03:31.935Z,168.00
2024-03-16T06:04:04.194Z,157.00
2024-03-16T06:04:36.650Z,147.00
2024-03-16T06:05:09.040Z,139.33
2024-03-16T06:05:42.509Z,132.00
2024-03-16T06:06:14.486Z,128.00
2024-03-16T06:06:47.800Z,127.00
2024-03-16T06:07:21.858Z,127.00
2024-03-16T06:07:53.837Z,132.00
2024-03-16T06:08:25.831Z,137.67
2024-03-16T06:08:57.720Z,142.00
2024-03-16T06:09:29.730Z,157.33
2024-03-16T06:10:01.824Z,172.33
2024-03-16T06:10:33.830Z,182.67
2024-03-16T06:11:06.115Z,188.00
2024-03-16T06:11:38.070Z,193.00
2024-03-16T06:12:10.820Z,196.33
2024-03-16T06:12:42.780Z,196.33
2024-03-16T06:13:14.798Z,197.33
2024-03-16T06:13:46.854Z,199.00
2024-03-16T06:14:18.837Z,206.67
2024-03-16T06:14:52.089Z,213.67
2024-03-16T06:15:24.275Z,216.67
2024-03-16T06:15:56.306Z,215.00
2024-03-16T06:16:28.360Z,211.67
2024-03-16T06:17:00.225Z,205.33
2024-03-16T06:17:32.405Z,202.33
2024-03-16T06:18:04.788Z,210.00
2024-03-16T06:18:38.962Z,221.33
2024-03-16T06:19:13.626Z,229.67
2024-03-16T06:19:45.565Z,233.00
2024-03-16T06:20:19.749Z,232.33
2024-03-16T06:20:52.744Z,228.67
2024-03-16T06:21:24.645Z,225.67
2024-03-16T06:21:56.910Z,223.00
2024-03-16T06:22:28.918Z,222.00
2024-03-16T06:23:00.827Z,220.67
2024-03-16T06:23:33.767Z,220.67
2024-03-16T06:24:06.272Z,219.00
2024-03-16T06:24:38.208Z,216.67
2024-03-16T06:25:14.474Z,215.67
2024-03-16T06:25:51.130Z,214.33
2024-03-16T06:26:23.569Z,214.33
2024-03-16T06:27:02.022Z,216.67
2024-03-16T06:27:35.030Z,217.33
2024-03-16T06:28:07.902Z,218.00
2024-03-16T06:28:40.956Z,217.33
2024-03-16T06:29:13.603Z,216.33
2024-03-16T06:29:53.118Z,216.00
2024-03-16T06:30:29.577Z,216.00
2024-03-16T06:31:09.147Z,215.00
2024-03-16T06:31:42.563Z,215.00
2024-03-16T06:32:21.451Z,214.33
2024-03-16T06:33:12.676Z,209.00
2024-03-16T06:33:49.623Z,201.00
2024-03-16T06:34:21.657Z,200.00
2024-03-16T06:34:54.753Z,200.33
2024-03-16T06:35:26.799Z,200.00
2024-03-16T06:35:58.807Z,196.00
2024-03-16T06:36:30.805Z,191.33
2024-03-16T06:37:02.953Z,187.00
2024-03-16T06:37:38.191Z,184.67
2024-03-16T06:38:10.455Z,182.00
2024-03-16T06:38:43.478Z,178.00
2024-03-16T06:39:15.542Z,177.00
2024-03-16T06:39:47.586Z,177.00
2024-03-16T06:40:19.640Z,177.33
2024-03-16T06:40:51.928Z,178.33
2024-03-16T06:41:24.037Z,183.67
2024-03-16T06:41:55.990Z,207.00
2024-03-16T06:42:29.475Z,226.67
2024-03-16T06:43:01.544Z,230.67
2024-03-16T06:43:33.794Z,233.33
2024-03-16T06:44:05.993Z,237.33
2024-03-16T06:44:38.257Z,246.00
2024-03-16T06:45:10.245Z,253.33
2024-03-16T06:45:43.051Z,258.00
2024-03-16T06:46:15.084Z,259.67
2024-03-16T06:46:47.216Z,252.33
2024-03-16T06:47:19.186Z,247.33
2024-03-16T06:47:51.242Z,242.33
2024-03-16T06:48:23.842Z,238.00
2024-03-16T06:48:55.848Z,236.00
2024-03-16T06:49:27.885Z,234.33
2024-03-16T06:49:59.807Z,233.00
2024-03-16T06:50:33.235Z,232.33
2024-03-16T06:51:05.409Z,232.00
2024-03-16T06:51:37.447Z,231.00